createdAt,value
2019-02-04T00:04:41.364Z,5.10
2019-02-04T00:09:40.837Z,6.53
2019-02-04T00:14:40.368Z,6.08
2019-02-04T00:17:10.656Z,7.00
2019-02-04T00:19:39.997Z,5.55
2019-02-04T00:24:42.864Z,5.30
2019-02-04T00:27:14.745Z,5.37
2019-02-04T00:29:46.899Z,5.10
2019-02-04T00:33:06.519Z,7.37
2019-02-04T00:35:39.449Z,6.35
2019-02-04T00:38:10.884Z,5.23
2019-02-04T00:43:11.878Z,5.70
2019-02-04T00:48:12.176Z,5.40
2019-02-04T00:50:43.936Z,4.80
2019-02-04T00:53:15.755Z,5.10
2019-02-04T01:05:06.952Z,6.20
2019-02-04T01:07:38.768Z,4.50
2019-02-04T01:15:13.833Z,5.33
2019-02-04T01:20:20.741Z,5.80
2019-02-04T01:25:23.847Z,4.73
2019-02-04T01:35:29.781Z,4.22
2019-02-04T01:38:01.055Z,4.20
2019-02-04T01:40:32.730Z,4.87
2019-02-04T01:43:06.825Z,4.70
2019-02-04T01:45:39.848Z,4.70
2019-02-04T01:50:41.820Z,4.20
2019-02-04T01:53:12.868Z,4.22
2019-02-04T01:55:44.821Z,4.28
2019-02-04T01:58:15.877Z,4.45
2019-02-04T02:08:18.864Z,4.12
2019-02-04T02:13:19.871Z,4.20
2019-02-04T02:15:51.846Z,4.83
2019-02-04T02:18:21.852Z,5.03
2019-02-04T02:20:52.875Z,4.40
2019-02-04T02:25:53.859Z,4.00
2019-02-04T02:28:26.683Z,3.83
2019-02-04T02:38:24.825Z,4.30
2019-02-04T02:50:57.834Z,4.30
2019-02-04T02:53:27.854Z,4.40
2019-02-04T03:00:59.855Z,5.50
2019-02-04T03:08:27.765Z,3.45
2019-02-04T03:11:04.834Z,4.00
2019-02-04T03:13:35.828Z,3.90
2019-02-04T03:16:05.877Z,3.50
2019-02-04T03:18:36.838Z,4.05
2019-02-04T03:21:06.876Z,4.40
2019-02-04T03:32:10.779Z,4.03
2019-02-04T03:37:07.881Z,4.58
2019-02-04T03:44:34.838Z,3.67
2019-02-04T03:47:03.793Z,4.37
2019-02-04T03:52:02.835Z,3.60
2019-02-04T03:59:29.323Z,3.37
2019-02-04T04:06:58.554Z,4.40
2019-02-04T04:11:55.755Z,3.70
2019-02-04T04:16:23.105Z,3.70
2019-02-04T04:18:50.397Z,3.92
2019-02-04T04:21:20.321Z,3.90
2019-02-04T04:23:50.338Z,3.25
2019-02-04T04:31:15.824Z,3.47
2019-02-04T04:33:44.645Z,3.90
2019-02-04T04:48:26.696Z,3.40
2019-02-04T04:50:53.486Z,3.40
2019-02-04T04:53:21.255Z,3.27
2019-02-04T05:03:16.905Z,3.63
2019-02-04T05:10:42.923Z,3.70
2019-02-04T05:13:11.842Z,3.07
2019-02-04T05:15:40.967Z,3.20
2019-02-04T05:25:23.849Z,3.15
2019-02-04T05:27:53.682Z,3.30
2019-02-04T05:30:24.355Z,3.20
2019-02-04T05:32:53.314Z,3.20
2019-02-04T05:35:22.846Z,5.83
2019-02-04T05:40:18.902Z,3.25
2019-02-04T05:42:48.630Z,3.22
2019-02-04T05:45:19.388Z,3.62
2019-02-04T05:47:48.759Z,3.23
2019-02-04T05:55:17.997Z,3.22
2019-02-04T05:57:46.805Z,3.37
2019-02-04T06:03:08.815Z,3.08
2019-02-04T06:13:03.350Z,3.65
2019-02-04T06:15:31.679Z,3.25
2019-02-04T06:22:55.950Z,3.40
2019-02-04T06:25:25.064Z,3.08
2019-02-04T06:27:53.847Z,3.60
2019-02-04T06:37:48.800Z,4.08
2019-02-04T06:40:18.396Z,6.95
2019-02-04T06:42:47.610Z,3.50
2019-02-04T06:45:17.824Z,4.20
2019-02-04T06:47:46.756Z,4.10
2019-02-04T06:52:44.075Z,4.17
2019-02-04T06:55:16.706Z,4.28
2019-02-04T07:00:16.317Z,4.08
2019-02-04T07:02:46.326Z,4.10
2019-02-04T07:05:15.371Z,3.83
2019-02-04T07:07:44.800Z,4.28
2019-02-04T07:12:47.748Z,3.90
2019-02-04T07:17:44.694Z,4.08
2019-02-04T07:20:17.843Z,6.62
2019-02-04T07:33:55.760Z,3.90
2019-02-04T07:41:20.764Z,3.67
2019-02-04T07:46:25.082Z,3.90
2019-02-04T07:48:53.491Z,5.00
2019-02-04T07:51:21.808Z,3.77
2019-02-04T08:09:36.344Z,13.33
2019-02-04T08:12:06.780Z,6.10
2019-02-04T08:22:02.779Z,6.15
2019-02-04T08:24:31.776Z,7.72
2019-02-04T08:31:57.590Z,8.47
2019-02-04T08:34:26.782Z,7.23
2019-02-04T08:40:29.079Z,10.05
2019-02-04T08:42:57.781Z,6.77
2019-02-04T08:45:26.924Z,5.20
2019-02-04T08:47:57.065Z,5.87
2019-02-04T08:50:25.645Z,8.00
2019-02-04T08:53:59.083Z,4.70
2019-02-04T08:56:29.648Z,7.95
2019-02-04T08:58:58.063Z,6.15
2019-02-04T09:01:26.838Z,6.87
2019-02-04T09:03:55.381Z,5.90
2019-02-04T09:06:24.709Z,9.65
2019-02-04T09:11:22.751Z,7.50
2019-02-04T09:16:23.621Z,6.40
2019-02-04T09:19:47.661Z,5.15
2019-02-04T09:24:46.450Z,5.80
2019-02-04T09:27:14.668Z,5.80
2019-02-04T09:32:12.004Z,6.00
2019-02-04T09:37:08.824Z,5.20
2019-02-04T09:39:38.874Z,5.70
2019-02-04T09:43:48.332Z,5.10
2019-02-04T09:48:46.112Z,5.50
2019-02-04T09:53:44.928Z,6.35
2019-02-04T09:56:14.719Z,4.50
2019-02-04T09:58:44.671Z,5.20
2019-02-04T10:01:14.901Z,4.75
2019-02-04T10:03:44.441Z,5.60
2019-02-04T10:06:12.965Z,6.28
2019-02-04T10:08:42.317Z,5.55
2019-02-04T10:11:10.680Z,6.10
2019-02-04T10:13:39.611Z,4.40
2019-02-04T10:18:37.935Z,5.30
2019-02-04T10:21:07.505Z,4.53
2019-02-04T10:23:37.997Z,4.30
2019-02-04T10:26:06.013Z,5.90
2019-02-04T10:28:34.784Z,8.10
2019-02-04T10:33:32.327Z,4.53
2019-02-04T10:36:01.982Z,4.30
2019-02-04T10:38:31.075Z,11.10
2019-02-04T10:40:59.699Z,4.95
2019-02-04T10:43:27.434Z,4.80
2019-02-04T10:45:57.651Z,4.85
2019-02-04T10:48:27.678Z,4.60
2019-02-04T10:53:24.763Z,6.60
2019-02-04T10:55:54.055Z,4.20
2019-02-04T10:58:23.829Z,4.15
2019-02-04T11:03:22.755Z,7.12
2019-02-04T11:05:56.369Z,5.70
2019-02-04T11:08:25.732Z,6.40
2019-02-04T11:10:54.742Z,8.07
2019-02-04T11:13:23.749Z,4.70
2019-02-04T11:29:23.439Z,7.05
2019-02-04T11:34:20.656Z,3.80
2019-02-04T11:36:50.472Z,4.30
2019-02-04T11:41:23.357Z,4.75
2019-02-04T11:43:55.888Z,4.75
2019-02-04T11:46:27.111Z,4.65
2019-02-04T11:48:57.410Z,6.50
2019-02-04T11:54:12.861Z,8.80
2019-02-04T11:56:43.017Z,7.30
2019-02-04T11:59:12.703Z,4.65
2019-02-04T12:04:12.714Z,5.70
2019-02-04T12:09:12.726Z,4.40
2019-02-04T12:11:42.389Z,4.30
2019-02-04T12:16:40.331Z,5.70
2019-02-04T12:19:10.247Z,5.35
2019-02-04T12:21:39.547Z,3.40
2019-02-04T12:24:08.767Z,3.85
2019-02-04T12:26:38.387Z,3.30
2019-02-04T12:29:09.000Z,3.75
2019-02-04T12:31:38.587Z,3.47
2019-02-04T12:36:38.922Z,2.83
2019-02-04T12:39:18.896Z,3.00
2019-02-04T12:41:50.648Z,3.83
2019-02-04T12:46:46.987Z,3.30
2019-02-04T12:49:15.588Z,3.20
2019-02-04T12:51:45.116Z,2.60
2019-02-04T12:54:14.157Z,2.75
2019-02-04T12:56:43.862Z,2.80
2019-02-04T12:59:12.740Z,2.50
2019-02-04T13:01:42.724Z,2.50
2019-02-04T13:04:11.702Z,3.40
2019-02-04T13:09:09.610Z,2.45
2019-02-04T13:11:38.652Z,5.35
2019-02-04T13:14:08.579Z,2.30
2019-02-04T13:16:38.671Z,1.95
2019-02-04T13:19:08.538Z,3.80
2019-02-04T13:29:03.434Z,2.50
2019-02-04T13:31:31.939Z,2.42
2019-02-04T13:34:00.225Z,3.90
2019-02-04T13:36:28.925Z,2.50
2019-02-04T13:38:57.442Z,2.33
2019-02-04T13:41:26.200Z,2.60
2019-02-04T13:43:56.040Z,2.70
2019-02-04T13:46:27.400Z,4.50
2019-02-04T13:48:57.076Z,3.53
2019-02-04T13:51:26.327Z,2.90
2019-02-04T13:53:57.143Z,3.10
2019-02-04T13:56:25.054Z,3.30
2019-02-04T13:58:54.106Z,2.50
2019-02-04T14:01:21.756Z,2.25
2019-02-04T14:03:51.883Z,2.53
2019-02-04T14:06:20.186Z,3.70
2019-02-04T14:08:50.188Z,3.20
2019-02-04T14:11:19.785Z,2.30
2019-02-04T14:13:49.822Z,4.80
2019-02-04T14:16:18.372Z,3.45
2019-02-04T14:18:47.750Z,2.60
2019-02-04T14:21:17.230Z,2.30
2019-02-04T14:23:46.825Z,5.30
2019-02-04T14:26:15.128Z,2.70
2019-02-04T14:28:43.999Z,3.70
2019-02-04T14:31:12.595Z,4.70
2019-02-04T14:33:41.400Z,2.80
2019-02-04T14:36:10.270Z,2.50
2019-02-04T14:38:39.376Z,8.93
2019-02-04T14:41:09.650Z,5.60
2019-02-04T14:43:59.514Z,7.67
2019-02-04T14:46:58.942Z,4.40
2019-02-04T14:50:38.832Z,3.23
2019-02-04T14:56:33.067Z,4.35
2019-02-04T14:59:36.740Z,5.40
2019-02-04T15:03:19.067Z,3.80
2019-02-04T15:09:46.660Z,3.10
2019-02-04T15:13:22.469Z,5.10
2019-02-04T15:16:29.598Z,7.20
2019-02-04T15:19:50.440Z,6.65
2019-02-04T15:22:34.281Z,9.80
2019-02-04T15:28:13.357Z,9.05
2019-02-04T15:31:17.290Z,15.00
2019-02-04T15:34:49.094Z,13.35
2019-02-04T15:37:59.980Z,20.30
2019-02-04T15:44:36.722Z,14.37
2019-02-04T15:47:15.106Z,19.07
2019-02-04T15:50:25.529Z,15.60
2019-02-04T15:57:51.950Z,19.03
2019-02-04T16:00:21.582Z,17.33
2019-02-04T16:02:50.747Z,14.70
2019-02-04T16:05:20.964Z,12.40
2019-02-04T16:07:49.135Z,13.60
2019-02-04T16:10:19.215Z,17.40
2019-02-04T16:12:49.784Z,13.10
2019-02-04T16:15:18.816Z,15.00
2019-02-04T16:17:47.473Z,14.00
2019-02-04T16:20:20.314Z,13.33
2019-02-04T16:22:57.747Z,14.03
2019-02-04T16:25:19.640Z,17.20
2019-02-04T16:27:47.100Z,11.93
2019-02-04T16:30:17.676Z,17.10
2019-02-04T16:32:45.723Z,12.00
2019-02-04T16:35:15.375Z,10.65
2019-02-04T16:37:44.666Z,15.00
2019-02-04T16:40:16.353Z,10.60
2019-02-04T16:42:45.963Z,16.90
2019-02-04T16:45:14.609Z,11.03
2019-02-04T16:47:45.152Z,12.80
2019-02-04T16:50:21.387Z,9.90
2019-02-04T16:52:51.755Z,10.80
2019-02-04T16:55:20.373Z,9.40
2019-02-04T16:57:47.873Z,11.65
2019-02-04T17:00:23.191Z,12.73
2019-02-04T17:02:54.300Z,12.73
2019-02-04T17:05:24.911Z,11.25
2019-02-04T17:07:54.840Z,10.90
2019-02-04T17:10:24.961Z,11.10
2019-02-04T17:12:54.228Z,12.70
2019-02-04T17:15:25.515Z,7.70
2019-02-04T17:17:53.910Z,10.10
2019-02-04T17:20:29.922Z,10.30
2019-02-04T17:22:58.324Z,9.95
2019-02-04T17:25:28.227Z,8.10
2019-02-04T17:27:57.185Z,10.57
2019-02-04T17:30:24.674Z,8.00
2019-02-04T17:32:54.725Z,9.55
2019-02-04T17:35:23.017Z,7.80
2019-02-04T17:40:20.772Z,9.67
2019-02-04T17:45:20.300Z,6.83
2019-02-04T17:47:50.007Z,8.77
2019-02-04T17:50:19.611Z,5.70
2019-02-04T17:52:50.421Z,7.55
2019-02-04T17:55:21.830Z,8.10
2019-02-04T17:57:52.003Z,9.40
2019-02-04T18:00:29.739Z,7.95
2019-02-04T18:03:01.377Z,6.95
2019-02-04T18:05:30.761Z,7.90
2019-02-04T18:08:00.598Z,8.07
2019-02-04T18:10:30.189Z,6.65
2019-02-04T18:13:03.351Z,7.75
2019-02-04T18:15:34.402Z,7.43
2019-02-04T18:18:05.850Z,6.25
2019-02-04T18:20:37.619Z,7.50
2019-02-04T18:25:42.850Z,7.50
2019-02-04T18:28:14.575Z,6.30
2019-02-04T18:30:45.895Z,7.97
2019-02-04T18:33:18.000Z,6.35
2019-02-04T18:35:49.439Z,8.10
2019-02-04T18:38:21.473Z,6.50
2019-02-04T18:40:53.467Z,7.45
2019-02-04T18:43:25.131Z,8.50
2019-02-04T18:45:57.546Z,9.75
2019-02-04T18:48:29.270Z,8.20
2019-02-04T18:51:02.577Z,11.60
2019-02-04T18:53:35.591Z,7.73
2019-02-04T18:56:07.531Z,7.95
2019-02-04T18:58:39.936Z,9.30
2019-02-04T19:03:46.318Z,9.10
2019-02-04T19:06:18.159Z,10.30
2019-02-04T19:08:51.120Z,8.80
2019-02-04T19:13:51.183Z,8.08
2019-02-04T19:16:23.715Z,7.15
2019-02-04T19:18:56.046Z,6.40
2019-02-04T19:21:29.059Z,10.95
2019-02-04T19:24:09.271Z,9.87
2019-02-04T19:26:33.897Z,6.30
2019-02-04T19:29:58.004Z,7.03
2019-02-04T19:32:31.163Z,7.30
2019-02-04T19:35:03.434Z,6.20
2019-02-04T19:37:35.246Z,8.57
2019-02-04T19:40:08.278Z,8.90
2019-02-04T19:42:42.180Z,7.60
2019-02-04T19:45:17.362Z,7.80
2019-02-04T19:47:50.722Z,8.10
2019-02-04T19:50:26.915Z,7.97
2019-02-04T19:52:59.083Z,8.43
2019-02-04T19:55:31.201Z,10.15
2019-02-04T19:58:05.677Z,8.77
2019-02-04T20:00:40.135Z,7.27
2019-02-04T20:03:12.154Z,7.60
2019-02-04T20:05:45.413Z,6.23
2019-02-04T20:08:18.692Z,7.20
2019-02-04T20:10:51.426Z,7.10
2019-02-04T20:13:24.249Z,8.25
2019-02-04T20:15:58.015Z,6.47
2019-02-04T20:18:31.969Z,9.90
2019-02-04T20:21:05.537Z,6.83
2019-02-04T20:23:40.003Z,9.10
2019-02-04T20:28:45.393Z,5.00
2019-02-04T20:31:18.636Z,7.05
2019-02-04T20:33:53.899Z,8.10
2019-02-04T20:36:27.245Z,7.72
2019-02-04T20:38:59.193Z,6.60
2019-02-04T20:41:33.697Z,7.75
2019-02-04T20:46:39.613Z,6.70
2019-02-04T20:49:12.263Z,5.95
2019-02-04T20:54:21.307Z,6.30
2019-02-04T20:56:55.934Z,5.00
2019-02-04T20:59:31.755Z,5.50
2019-02-04T21:02:03.690Z,5.80
2019-02-04T21:04:36.411Z,6.25
2019-02-04T21:07:09.376Z,5.90
2019-02-04T21:12:12.780Z,5.47
2019-02-04T21:14:44.020Z,4.50
2019-02-04T21:17:15.584Z,5.65
2019-02-04T21:21:51.683Z,4.20
2019-02-04T21:24:21.972Z,5.40
2019-02-04T21:26:53.647Z,5.90
2019-02-04T21:29:25.660Z,5.50
2019-02-04T21:31:56.612Z,6.60
2019-02-04T21:34:26.126Z,6.20
2019-02-04T21:39:44.954Z,5.30
2019-02-04T21:42:15.283Z,6.20
2019-02-04T21:44:46.963Z,5.80
2019-02-04T21:47:17.631Z,6.60
2019-02-04T21:52:17.633Z,5.95
2019-02-04T21:54:46.758Z,29.05
2019-02-04T21:57:17.660Z,4.70
2019-02-04T21:59:47.716Z,4.95
2019-02-04T22:02:18.638Z,4.83
2019-02-04T22:04:50.760Z,8.00
2019-02-04T22:07:20.956Z,7.30
2019-02-04T22:12:19.657Z,5.00
2019-02-04T22:14:50.749Z,5.00
2019-02-04T22:17:20.030Z,4.85
2019-02-04T22:19:51.588Z,4.60
2019-02-04T22:22:21.763Z,4.80
2019-02-04T22:24:53.471Z,5.10
2019-02-04T22:27:23.622Z,6.45
2019-02-04T22:29:53.641Z,9.50
2019-02-04T22:32:26.211Z,5.20
2019-02-04T22:34:56.991Z,5.20
2019-02-04T22:37:27.621Z,4.85
2019-02-04T22:39:58.654Z,5.10
2019-02-04T22:42:27.555Z,5.20
2019-02-04T22:44:57.976Z,5.20
2019-02-04T22:47:27.992Z,4.97
2019-02-04T22:49:58.901Z,6.85
2019-02-04T22:52:27.912Z,5.40
2019-02-04T22:54:59.531Z,7.45
2019-02-04T22:57:27.652Z,7.10
2019-02-04T22:59:58.318Z,5.77
2019-02-04T23:02:26.967Z,8.70
2019-02-04T23:04:57.654Z,4.50
2019-02-04T23:07:27.638Z,4.75
2019-02-04T23:09:57.913Z,5.20
2019-02-04T23:12:27.667Z,6.85
2019-02-04T23:14:57.945Z,4.70
2019-02-04T23:17:28.758Z,5.37
2019-02-04T23:22:43.957Z,5.00
2019-02-04T23:25:10.718Z,6.60
2019-02-04T23:27:40.598Z,5.20
2019-02-04T23:30:11.467Z,4.90
2019-02-04T23:32:42.438Z,5.80
2019-02-04T23:35:13.118Z,6.90
2019-02-04T23:37:42.089Z,4.70
2019-02-04T23:40:12.113Z,5.70
2019-02-04T23:42:42.068Z,5.20
2019-02-04T23:51:21.271Z,4.70
2019-02-04T23:53:51.091Z,6.40
2019-02-04T23:56:23.013Z,4.60
2019-02-04T23:58:53.005Z,5.10
